sensor_id;sensor_type;location;lat;lon;timestamp;P1;durP1;ratioP1;P2;durP2;ratioP2
34541;SDS011;20784;51.332;12.410;2023-06-22T00:00:55;14.60;;;9.57;;
34541;SDS011;20784;51.332;12.410;2023-06-22T00:03:22;10.60;;;8.63;;
34541;SDS011;20784;51.332;12.410;2023-06-22T00:05:51;11.70;;;9.10;;
34541;SDS011;20784;51.332;12.410;2023-06-22T00:08:18;11.45;;;8.73;;
34541;SDS011;20784;51.332;12.410;2023-06-22T00:10:44;14.63;;;9.10;;
34541;SDS011;20784;51.332;12.410;2023-06-22T00:13:11;13.45;;;9.57;;
34541;SDS011;20784;51.332;12.410;2023-06-22T00:15:42;11.15;;;9.77;;
34541;SDS011;20784;51.332;12.410;2023-06-22T00:18:09;10.55;;;9.40;;
34541;SDS011;20784;51.332;12.410;2023-06-22T00:20:35;13.93;;;9.77;;
34541;SDS011;20784;51.332;12.410;2023-06-22T00:23:05;12.23;;;9.65;;
34541;SDS011;20784;51.332;12.410;2023-06-22T00:25:34;13.20;;;9.77;;
34541;SDS011;20784;51.332;12.410;2023-06-22T00:28:01;10.77;;;9.48;;
34541;SDS011;20784;51.332;12.410;2023-06-22T00:30:27;10.45;;;9.30;;
34541;SDS011;20784;51.332;12.410;2023-06-22T00:32:53;15.10;;;9.75;;
34541;SDS011;20784;51.332;12.410;2023-06-22T00:35:18;11.45;;;10.07;;
34541;SDS011;20784;51.332;12.410;2023-06-22T00:37:44;14.18;;;9.57;;
34541;SDS011;20784;51.332;12.410;2023-06-22T00:40:10;10.95;;;9.77;;
34541;SDS011;20784;51.332;12.410;2023-06-22T00:42:37;12.10;;;9.73;;
34541;SDS011;20784;51.332;12.410;2023-06-22T00:45:05;16.95;;;10.40;;
34541;SDS011;20784;51.332;12.410;2023-06-22T00:47:32;12.07;;;9.48;;
34541;SDS011;20784;51.332;12.410;2023-06-22T00:50:02;28.88;;;9.98;;
34541;SDS011;20784;51.332;12.410;2023-06-22T00:52:30;12.07;;;9.13;;
34541;SDS011;20784;51.332;12.410;2023-06-22T00:54:58;13.38;;;9.48;;
34541;SDS011;20784;51.332;12.410;2023-06-22T00:57:29;13.75;;;10.57;;
34541;SDS011;20784;51.332;12.410;2023-06-22T00:59:58;20.20;;;10.73;;
34541;SDS011;20784;51.332;12.410;2023-06-22T01:02:34;16.20;;;10.13;;
34541;SDS011;20784;51.332;12.410;2023-06-22T01:05:03;11.43;;;9.50;;
34541;SDS011;20784;51.332;12.410;2023-06-22T01:07:38;12.20;;;9.15;;
34541;SDS011;20784;51.332;12.410;2023-06-22T01:13:10;11.15;;;9.95;;
34541;SDS011;20784;51.332;12.410;2023-06-22T01:15:42;14.07;;;9.60;;
34541;SDS011;20784;51.332;12.410;2023-06-22T01:18:16;12.32;;;9.50;;
34541;SDS011;20784;51.332;12.410;2023-06-22T01:20:43;13.60;;;10.15;;
34541;SDS011;20784;51.332;12.410;2023-06-22T01:23:17;11.88;;;10.13;;
34541;SDS011;20784;51.332;12.410;2023-06-22T01:26:09;13.05;;;10.43;;
34541;SDS011;20784;51.332;12.410;2023-06-22T01:28:47;12.20;;;9.80;;
34541;SDS011;20784;51.332;12.410;2023-06-22T01:31:25;11.68;;;10.00;;
34541;SDS011;20784;51.332;12.410;2023-06-22T01:33:55;13.55;;;10.32;;
34541;SDS011;20784;51.332;12.410;2023-06-22T01:36:24;13.30;;;10.43;;
34541;SDS011;20784;51.332;12.410;2023-06-22T01:38:56;11.25;;;9.93;;
34541;SDS011;20784;51.332;12.410;2023-06-22T01:41:29;10.63;;;9.38;;
34541;SDS011;20784;51.332;12.410;2023-06-22T01:44:00;13.02;;;10.15;;
34541;SDS011;20784;51.332;12.410;2023-06-22T01:46:31;12.53;;;9.97;;
34541;SDS011;20784;51.332;12.410;2023-06-22T01:48:57;11.65;;;10.35;;
34541;SDS011;20784;51.332;12.410;2023-06-22T01:51:23;16.42;;;11.00;;
34541;SDS011;20784;51.332;12.410;2023-06-22T01:53:55;13.48;;;11.30;;
34541;SDS011;20784;51.332;12.410;2023-06-22T01:56:26;11.57;;;9.88;;
34541;SDS011;20784;51.332;12.410;2023-06-22T01:59:00;18.75;;;11.45;;
34541;SDS011;20784;51.332;12.410;2023-06-22T02:02:19;14.65;;;11.15;;
34541;SDS011;20784;51.332;12.410;2023-06-22T02:04:33;12.60;;;10.20;;
34541;SDS011;20784;51.332;12.410;2023-06-22T02:07:09;12.90;;;10.60;;
34541;SDS011;20784;51.332;12.410;2023-06-22T02:09:46;13.88;;;10.55;;
34541;SDS011;20784;51.332;12.410;2023-06-22T02:12:16;15.88;;;10.57;;
34541;SDS011;20784;51.332;12.410;2023-06-22T02:14:47;14.45;;;11.05;;
34541;SDS011;20784;51.332;12.410;2023-06-22T02:17:13;16.65;;;11.15;;
34541;SDS011;20784;51.332;12.410;2023-06-22T02:19:42;13.32;;;11.10;;
34541;SDS011;20784;51.332;12.410;2023-06-22T02:22:08;13.23;;;11.50;;
34541;SDS011;20784;51.332;12.410;2023-06-22T02:24:40;14.98;;;11.80;;
34541;SDS011;20784;51.332;12.410;2023-06-22T02:27:05;16.48;;;12.23;;
34541;SDS011;20784;51.332;12.410;2023-06-22T02:29:32;14.82;;;12.15;;
34541;SDS011;20784;51.332;12.410;2023-06-22T02:31:58;13.93;;;11.65;;
34541;SDS011;20784;51.332;12.410;2023-06-22T02:34:24;14.35;;;12.40;;
34541;SDS011;20784;51.332;12.410;2023-06-22T02:36:52;13.27;;;11.15;;
34541;SDS011;20784;51.332;12.410;2023-06-22T02:41:51;16.40;;;11.75;;
34541;SDS011;20784;51.332;12.410;2023-06-22T02:44:17;25.45;;;12.30;;
34541;SDS011;20784;51.332;12.410;2023-06-22T02:46:43;18.35;;;11.52;;
34541;SDS011;20784;51.332;12.410;2023-06-22T02:49:09;16.00;;;11.95;;
34541;SDS011;20784;51.332;12.410;2023-06-22T02:51:38;20.92;;;12.23;;
34541;SDS011;20784;51.332;12.410;2023-06-22T02:54:04;13.93;;;11.90;;
34541;SDS011;20784;51.332;12.410;2023-06-22T02:56:32;23.92;;;12.80;;
34541;SDS011;20784;51.332;12.410;2023-06-22T02:58:58;14.95;;;11.80;;
34541;SDS011;20784;51.332;12.410;2023-06-22T03:01:30;16.25;;;12.18;;
34541;SDS011;20784;51.332;12.410;2023-06-22T03:03:58;15.70;;;11.40;;
34541;SDS011;20784;51.332;12.410;2023-06-22T03:06:24;20.05;;;13.00;;
34541;SDS011;20784;51.332;12.410;2023-06-22T03:08:54;18.10;;;13.07;;
34541;SDS011;20784;51.332;12.410;2023-06-22T03:11:25;17.65;;;12.52;;
34541;SDS011;20784;51.332;12.410;2023-06-22T03:13:50;17.98;;;11.55;;
34541;SDS011;20784;51.332;12.410;2023-06-22T03:16:17;16.42;;;13.43;;
34541;SDS011;20784;51.332;12.410;2023-06-22T03:18:44;16.30;;;12.65;;
34541;SDS011;20784;51.332;12.410;2023-06-22T03:21:09;17.73;;;12.93;;
34541;SDS011;20784;51.332;12.410;2023-06-22T03:23:40;19.70;;;12.85;;
34541;SDS011;20784;51.332;12.410;2023-06-22T03:26:06;17.10;;;12.43;;
34541;SDS011;20784;51.332;12.410;2023-06-22T03:28:39;21.42;;;12.50;;
34541;SDS011;20784;51.332;12.410;2023-06-22T03:31:04;19.75;;;12.32;;
34541;SDS011;20784;51.332;12.410;2023-06-22T03:33:31;14.35;;;12.45;;
34541;SDS011;20784;51.332;12.410;2023-06-22T03:35:57;18.48;;;12.23;;
34541;SDS011;20784;51.332;12.410;2023-06-22T03:38:23;16.08;;;13.32;;
34541;SDS011;20784;51.332;12.410;2023-06-22T03:40:51;20.38;;;13.15;;
34541;SDS011;20784;51.332;12.410;2023-06-22T03:43:16;19.02;;;13.75;;
34541;SDS011;20784;51.332;12.410;2023-06-22T03:45:45;18.13;;;14.60;;
34541;SDS011;20784;51.332;12.410;2023-06-22T03:48:11;16.48;;;13.57;;
34541;SDS011;20784;51.332;12.410;2023-06-22T03:50:54;23.73;;;14.07;;
34541;SDS011;20784;51.332;12.410;2023-06-22T03:53:20;25.70;;;13.85;;
34541;SDS011;20784;51.332;12.410;2023-06-22T03:55:49;20.52;;;13.93;;
34541;SDS011;20784;51.332;12.410;2023-06-22T03:58:19;16.13;;;13.32;;
34541;SDS011;20784;51.332;12.410;2023-06-22T04:00:46;18.77;;;14.40;;
34541;SDS011;20784;51.332;12.410;2023-06-22T04:03:14;26.45;;;14.60;;
34541;SDS011;20784;51.332;12.410;2023-06-22T04:05:40;21.73;;;14.88;;
34541;SDS011;20784;51.332;12.410;2023-06-22T04:08:06;25.30;;;15.25;;
34541;SDS011;20784;51.332;12.410;2023-06-22T04:10:34;21.63;;;14.48;;
34541;SDS011;20784;51.332;12.410;2023-06-22T04:13:00;22.13;;;14.70;;
34541;SDS011;20784;51.332;12.410;2023-06-22T04:15:31;27.08;;;15.20;;
34541;SDS011;20784;51.332;12.410;2023-06-22T04:17:57;19.02;;;15.43;;
34541;SDS011;20784;51.332;12.410;2023-06-22T04:20:22;19.38;;;14.73;;
34541;SDS011;20784;51.332;12.410;2023-06-22T04:22:51;20.30;;;14.98;;
34541;SDS011;20784;51.332;12.410;2023-06-22T04:25:19;20.63;;;14.80;;
34541;SDS011;20784;51.332;12.410;2023-06-22T04:27:45;22.50;;;15.68;;
34541;SDS011;20784;51.332;12.410;2023-06-22T04:30:14;23.00;;;15.30;;
34541;SDS011;20784;51.332;12.410;2023-06-22T04:32:41;19.88;;;16.15;;
34541;SDS011;20784;51.332;12.410;2023-06-22T04:35:10;24.13;;;15.45;;
34541;SDS011;20784;51.332;12.410;2023-06-22T04:37:36;21.52;;;15.20;;
34541;SDS011;20784;51.332;12.410;2023-06-22T04:40:06;19.60;;;15.85;;
34541;SDS011;20784;51.332;12.410;2023-06-22T04:42:33;21.15;;;15.48;;
34541;SDS011;20784;51.332;12.410;2023-06-22T04:44:59;24.55;;;15.20;;
34541;SDS011;20784;51.332;12.410;2023-06-22T04:47:25;20.00;;;16.05;;
34541;SDS011;20784;51.332;12.410;2023-06-22T04:49:51;24.90;;;15.40;;
34541;SDS011;20784;51.332;12.410;2023-06-22T04:52:17;25.70;;;17.67;;
34541;SDS011;20784;51.332;12.410;2023-06-22T04:54:42;24.42;;;16.33;;
34541;SDS011;20784;51.332;12.410;2023-06-22T04:57:12;38.00;;;26.60;;
34541;SDS011;20784;51.332;12.410;2023-06-22T04:59:38;37.22;;;29.23;;
34541;SDS011;20784;51.332;12.410;2023-06-22T05:02:06;26.50;;;19.75;;
34541;SDS011;20784;51.332;12.410;2023-06-22T05:04:32;25.35;;;17.15;;
34541;SDS011;20784;51.332;12.410;2023-06-22T05:07:00;24.45;;;15.75;;
34541;SDS011;20784;51.332;12.410;2023-06-22T05:09:26;22.75;;;15.80;;
34541;SDS011;20784;51.332;12.410;2023-06-22T05:11:52;25.67;;;17.17;;
34541;SDS011;20784;51.332;12.410;2023-06-22T05:14:18;21.05;;;16.90;;
34541;SDS011;20784;51.332;12.410;2023-06-22T05:16:44;25.85;;;16.90;;
34541;SDS011;20784;51.332;12.410;2023-06-22T05:19:10;27.17;;;17.75;;
34541;SDS011;20784;51.332;12.410;2023-06-22T05:21:36;23.55;;;17.77;;
34541;SDS011;20784;51.332;12.410;2023-06-22T05:24:02;22.45;;;17.27;;
34541;SDS011;20784;51.332;12.410;2023-06-22T05:26:29;21.27;;;16.08;;
34541;SDS011;20784;51.332;12.410;2023-06-22T05:28:56;23.77;;;15.85;;
34541;SDS011;20784;51.332;12.410;2023-06-22T05:31:22;24.73;;;17.02;;
34541;SDS011;20784;51.332;12.410;2023-06-22T05:33:51;22.95;;;15.93;;
34541;SDS011;20784;51.332;12.410;2023-06-22T05:36:20;23.15;;;15.55;;
34541;SDS011;20784;51.332;12.410;2023-06-22T05:38:49;21.98;;;16.02;;
34541;SDS011;20784;51.332;12.410;2023-06-22T05:41:16;22.27;;;15.85;;
34541;SDS011;20784;51.332;12.410;2023-06-22T05:43:48;27.45;;;15.52;;
34541;SDS011;20784;51.332;12.410;2023-06-22T05:46:14;22.05;;;15.13;;
34541;SDS011;20784;51.332;12.410;2023-06-22T05:48:45;25.02;;;15.15;;
34541;SDS011;20784;51.332;12.410;2023-06-22T05:51:10;19.85;;;15.18;;
34541;SDS011;20784;51.332;12.410;2023-06-22T05:53:36;26.10;;;16.73;;
34541;SDS011;20784;51.332;12.410;2023-06-22T05:56:01;21.92;;;16.67;;
34541;SDS011;20784;51.332;12.410;2023-06-22T05:58:27;24.08;;;16.05;;
34541;SDS011;20784;51.332;12.410;2023-06-22T06:00:53;21.95;;;15.43;;
34541;SDS011;20784;51.332;12.410;2023-06-22T06:03:21;22.30;;;16.48;;
34541;SDS011;20784;51.332;12.410;2023-06-22T06:05:47;23.48;;;15.07;;
34541;SDS011;20784;51.332;12.410;2023-06-22T06:08:13;28.75;;;15.75;;
34541;SDS011;20784;51.332;12.410;2023-06-22T06:10:39;22.13;;;15.18;;
34541;SDS011;20784;51.332;12.410;2023-06-22T06:13:07;27.45;;;14.63;;
34541;SDS011;20784;51.332;12.410;2023-06-22T06:15:42;22.15;;;14.13;;
34541;SDS011;20784;51.332;12.410;2023-06-22T06:18:11;23.05;;;12.80;;
34541;SDS011;20784;51.332;12.410;2023-06-22T06:20:37;20.05;;;14.43;;
34541;SDS011;20784;51.332;12.410;2023-06-22T06:23:02;19.25;;;12.70;;
34541;SDS011;20784;51.332;12.410;2023-06-22T06:25:28;20.33;;;13.70;;
34541;SDS011;20784;51.332;12.410;2023-06-22T06:27:53;17.10;;;12.85;;
34541;SDS011;20784;51.332;12.410;2023-06-22T06:30:19;22.67;;;12.63;;
34541;SDS011;20784;51.332;12.410;2023-06-22T06:32:51;16.20;;;11.82;;
34541;SDS011;20784;51.332;12.410;2023-06-22T06:35:27;13.70;;;11.80;;
34541;SDS011;20784;51.332;12.410;2023-06-22T06:38:05;18.33;;;11.77;;
34541;SDS011;20784;51.332;12.410;2023-06-22T06:40:38;19.10;;;11.43;;
34541;SDS011;20784;51.332;12.410;2023-06-22T06:43:13;13.93;;;10.73;;
34541;SDS011;20784;51.332;12.410;2023-06-22T06:45:42;15.75;;;10.95;;
34541;SDS011;20784;51.332;12.410;2023-06-22T06:48:14;14.13;;;10.80;;
34541;SDS011;20784;51.332;12.410;2023-06-22T06:50:40;14.13;;;10.70;;
34541;SDS011;20784;51.332;12.410;2023-06-22T06:53:06;16.30;;;11.40;;
34541;SDS011;20784;51.332;12.410;2023-06-22T06:55:31;11.98;;;10.13;;
34541;SDS011;20784;51.332;12.410;2023-06-22T06:58:08;14.98;;;10.68;;
34541;SDS011;20784;51.332;12.410;2023-06-22T07:00:36;13.35;;;9.98;;
34541;SDS011;20784;51.332;12.410;2023-06-22T07:03:02;11.80;;;9.48;;
34541;SDS011;20784;51.332;12.410;2023-06-22T07:05:31;11.90;;;9.13;;
34541;SDS011;20784;51.332;12.410;2023-06-22T07:08:00;11.38;;;9.07;;
34541;SDS011;20784;51.332;12.410;2023-06-22T07:10:42;10.70;;;9.60;;
34541;SDS011;20784;51.332;12.410;2023-06-22T07:13:19;14.95;;;9.50;;
34541;SDS011;20784;51.332;12.410;2023-06-22T07:15:45;14.02;;;9.77;;
34541;SDS011;20784;51.332;12.410;2023-06-22T07:18:16;14.90;;;9.23;;
34541;SDS011;20784;51.332;12.410;2023-06-22T07:20:41;10.70;;;9.13;;
34541;SDS011;20784;51.332;12.410;2023-06-22T07:23:09;14.07;;;8.50;;
34541;SDS011;20784;51.332;12.410;2023-06-22T07:25:38;13.07;;;10.00;;
34541;SDS011;20784;51.332;12.410;2023-06-22T07:28:04;14.75;;;8.98;;
34541;SDS011;20784;51.332;12.410;2023-06-22T07:30:31;12.80;;;8.55;;
34541;SDS011;20784;51.332;12.410;2023-06-22T07:32:58;17.95;;;9.02;;
34541;SDS011;20784;51.332;12.410;2023-06-22T07:35:30;12.23;;;9.40;;
34541;SDS011;20784;51.332;12.410;2023-06-22T07:37:56;14.05;;;8.77;;
34541;SDS011;20784;51.332;12.410;2023-06-22T07:40:24;13.60;;;10.20;;
34541;SDS011;20784;51.332;12.410;2023-06-22T07:42:49;13.95;;;9.50;;
34541;SDS011;20784;51.332;12.410;2023-06-22T07:45:20;26.58;;;9.88;;
34541;SDS011;20784;51.332;12.410;2023-06-22T07:47:52;16.52;;;9.75;;
34541;SDS011;20784;51.332;12.410;2023-06-22T07:50:18;15.60;;;10.10;;
34541;SDS011;20784;51.332;12.410;2023-06-22T07:52:46;12.45;;;9.43;;
34541;SDS011;20784;51.332;12.410;2023-06-22T07:55:19;10.32;;;8.90;;
34541;SDS011;20784;51.332;12.410;2023-06-22T07:57:46;15.10;;;9.80;;
34541;SDS011;20784;51.332;12.410;2023-06-22T08:00:14;15.07;;;9.35;;
34541;SDS011;20784;51.332;12.410;2023-06-22T08:02:44;11.80;;;9.88;;
34541;SDS011;20784;51.332;12.410;2023-06-22T08:05:14;13.60;;;9.70;;
34541;SDS011;20784;51.332;12.410;2023-06-22T08:07:42;13.32;;;9.77;;
34541;SDS011;20784;51.332;12.410;2023-06-22T08:10:12;14.02;;;8.88;;
34541;SDS011;20784;51.332;12.410;2023-06-22T08:12:41;14.40;;;9.77;;
34541;SDS011;20784;51.332;12.410;2023-06-22T08:15:12;12.13;;;9.18;;
34541;SDS011;20784;51.332;12.410;2023-06-22T08:17:43;11.05;;;9.40;;
34541;SDS011;20784;51.332;12.410;2023-06-22T08:20:12;10.65;;;8.63;;
34541;SDS011;20784;51.332;12.410;2023-06-22T08:22:41;11.93;;;8.88;;
34541;SDS011;20784;51.332;12.410;2023-06-22T08:25:10;12.52;;;8.90;;
34541;SDS011;20784;51.332;12.410;2023-06-22T08:27:35;10.25;;;8.75;;
34541;SDS011;20784;51.332;12.410;2023-06-22T08:30:12;10.68;;;8.43;;
34541;SDS011;20784;51.332;12.410;2023-06-22T08:32:47;9.38;;;8.35;;
34541;SDS011;20784;51.332;12.410;2023-06-22T08:35:13;16.27;;;8.45;;
34541;SDS011;20784;51.332;12.410;2023-06-22T08:37:42;14.07;;;9.38;;
34541;SDS011;20784;51.332;12.410;2023-06-22T08:40:21;11.93;;;9.18;;
34541;SDS011;20784;51.332;12.410;2023-06-22T08:42:49;13.93;;;8.38;;
34541;SDS011;20784;51.332;12.410;2023-06-22T08:45:15;9.70;;;8.63;;
34541;SDS011;20784;51.332;12.410;2023-06-22T08:47:41;9.52;;;8.23;;
34541;SDS011;20784;51.332;12.410;2023-06-22T08:50:13;17.30;;;8.65;;
34541;SDS011;20784;51.332;12.410;2023-06-22T08:52:49;11.25;;;8.50;;
34541;SDS011;20784;51.332;12.410;2023-06-22T08:55:17;11.48;;;8.00;;
34541;SDS011;20784;51.332;12.410;2023-06-22T08:57:43;15.80;;;8.02;;
34541;SDS011;20784;51.332;12.410;2023-06-22T09:00:20;13.75;;;8.32;;
34541;SDS011;20784;51.332;12.410;2023-06-22T09:02:52;10.63;;;8.35;;
34541;SDS011;20784;51.332;12.410;2023-06-22T09:05:23;9.52;;;7.80;;
34541;SDS011;20784;51.332;12.410;2023-06-22T09:07:58;8.43;;;7.53;;
34541;SDS011;20784;51.332;12.410;2023-06-22T09:10:24;11.23;;;7.32;;
34541;SDS011;20784;51.332;12.410;2023-06-22T09:12:50;8.55;;;7.25;;
34541;SDS011;20784;51.332;12.410;2023-06-22T09:15:28;12.00;;;7.60;;
34541;SDS011;20784;51.332;12.410;2023-06-22T09:17:56;9.93;;;7.75;;
34541;SDS011;20784;51.332;12.410;2023-06-22T09:20:25;9.32;;;7.40;;
34541;SDS011;20784;51.332;12.410;2023-06-22T09:22:56;19.80;;;7.47;;
34541;SDS011;20784;51.332;12.410;2023-06-22T09:25:21;10.48;;;6.55;;
34541;SDS011;20784;51.332;12.410;2023-06-22T09:27:49;7.53;;;6.72;;
34541;SDS011;20784;51.332;12.410;2023-06-22T09:30:15;7.47;;;5.90;;
34541;SDS011;20784;51.332;12.410;2023-06-22T09:32:41;9.73;;;7.65;;
34541;SDS011;20784;51.332;12.410;2023-06-22T09:35:07;15.57;;;7.22;;
34541;SDS011;20784;51.332;12.410;2023-06-22T09:37:40;6.68;;;6.00;;
34541;SDS011;20784;51.332;12.410;2023-06-22T09:40:14;15.27;;;6.57;;
34541;SDS011;20784;51.332;12.410;2023-06-22T09:42:42;6.50;;;5.90;;
34541;SDS011;20784;51.332;12.410;2023-06-22T09:45:29;7.07;;;6.18;;
34541;SDS011;20784;51.332;12.410;2023-06-22T09:47:57;8.30;;;5.88;;
34541;SDS011;20784;51.332;12.410;2023-06-22T09:50:32;7.68;;;5.75;;
34541;SDS011;20784;51.332;12.410;2023-06-22T09:53:03;14.77;;;6.40;;
34541;SDS011;20784;51.332;12.410;2023-06-22T09:55:34;7.55;;;6.30;;
34541;SDS011;20784;51.332;12.410;2023-06-22T09:58:05;8.27;;;6.20;;
34541;SDS011;20784;51.332;12.410;2023-06-22T10:00:31;9.68;;;6.13;;
34541;SDS011;20784;51.332;12.410;2023-06-22T10:02:57;9.30;;;5.88;;
34541;SDS011;20784;51.332;12.410;2023-06-22T10:05:22;6.85;;;6.15;;
34541;SDS011;20784;51.332;12.410;2023-06-22T10:07:50;7.13;;;6.10;;
34541;SDS011;20784;51.332;12.410;2023-06-22T10:10:18;12.10;;;6.55;;
34541;SDS011;20784;51.332;12.410;2023-06-22T10:12:54;8.02;;;6.65;;
34541;SDS011;20784;51.332;12.410;2023-06-22T10:15:34;11.90;;;6.03;;
34541;SDS011;20784;51.332;12.410;2023-06-22T10:18:02;7.15;;;5.57;;
34541;SDS011;20784;51.332;12.410;2023-06-22T10:20:28;12.88;;;6.30;;
34541;SDS011;20784;51.332;12.410;2023-06-22T10:22:54;7.28;;;5.72;;
34541;SDS011;20784;51.332;12.410;2023-06-22T10:25:19;12.68;;;5.97;;
34541;SDS011;20784;51.332;12.410;2023-06-22T10:27:47;9.85;;;6.53;;
34541;SDS011;20784;51.332;12.410;2023-06-22T10:30:16;8.98;;;6.40;;
34541;SDS011;20784;51.332;12.410;2023-06-22T10:32:44;9.57;;;6.80;;
34541;SDS011;20784;51.332;12.410;2023-06-22T10:35:10;7.05;;;6.00;;
34541;SDS011;20784;51.332;12.410;2023-06-22T10:37:38;11.85;;;6.20;;
34541;SDS011;20784;51.332;12.410;2023-06-22T10:40:12;8.18;;;6.10;;
34541;SDS011;20784;51.332;12.410;2023-06-22T10:42:44;11.65;;;6.18;;
34541;SDS011;20784;51.332;12.410;2023-06-22T10:45:15;7.88;;;6.55;;
34541;SDS011;20784;51.332;12.410;2023-06-22T10:47:40;7.07;;;5.85;;
34541;SDS011;20784;51.332;12.410;2023-06-22T10:50:07;9.50;;;5.88;;
34541;SDS011;20784;51.332;12.410;2023-06-22T10:52:35;7.97;;;5.75;;
34541;SDS011;20784;51.332;12.410;2023-06-22T10:55:04;6.53;;;5.82;;
34541;SDS011;20784;51.332;12.410;2023-06-22T10:57:30;8.80;;;6.00;;
34541;SDS011;20784;51.332;12.410;2023-06-22T10:59:59;9.60;;;6.10;;
34541;SDS011;20784;51.332;12.410;2023-06-22T11:02:24;8.10;;;6.00;;
34541;SDS011;20784;51.332;12.410;2023-06-22T11:04:50;9.50;;;5.72;;
34541;SDS011;20784;51.332;12.410;2023-06-22T11:07:16;7.20;;;5.72;;
34541;SDS011;20784;51.332;12.410;2023-06-22T11:14:46;7.10;;;6.03;;
34541;SDS011;20784;51.332;12.410;2023-06-22T11:17:17;9.40;;;5.93;;
34541;SDS011;20784;51.332;12.410;2023-06-22T11:19:46;9.00;;;6.20;;
34541;SDS011;20784;51.332;12.410;2023-06-22T11:22:25;6.93;;;5.68;;
34541;SDS011;20784;51.332;12.410;2023-06-22T11:24:51;10.00;;;6.28;;
34541;SDS011;20784;51.332;12.410;2023-06-22T11:27:17;6.68;;;5.85;;
34541;SDS011;20784;51.332;12.410;2023-06-22T11:29:45;7.25;;;6.30;;
34541;SDS011;20784;51.332;12.410;2023-06-22T11:32:17;6.85;;;6.13;;
34541;SDS011;20784;51.332;12.410;2023-06-22T11:34:49;11.55;;;6.70;;
34541;SDS011;20784;51.332;12.410;2023-06-22T11:37:15;8.13;;;6.65;;
34541;SDS011;20784;51.332;12.410;2023-06-22T11:39:41;7.50;;;6.70;;
34541;SDS011;20784;51.332;12.410;2023-06-22T11:42:20;10.05;;;7.10;;
34541;SDS011;20784;51.332;12.410;2023-06-22T11:44:48;10.70;;;6.85;;
34541;SDS011;20784;51.332;12.410;2023-06-22T11:47:17;8.45;;;6.32;;
34541;SDS011;20784;51.332;12.410;2023-06-22T11:49:43;8.55;;;6.38;;
34541;SDS011;20784;51.332;12.410;2023-06-22T11:52:08;10.55;;;6.90;;
34541;SDS011;20784;51.332;12.410;2023-06-22T11:54:34;12.15;;;6.72;;
34541;SDS011;20784;51.332;12.410;2023-06-22T11:56:59;7.35;;;6.55;;
34541;SDS011;20784;51.332;12.410;2023-06-22T11:59:25;9.80;;;6.50;;
34541;SDS011;20784;51.332;12.410;2023-06-22T12:01:51;10.48;;;6.70;;
34541;SDS011;20784;51.332;12.410;2023-06-22T12:04:19;8.07;;;6.20;;
34541;SDS011;20784;51.332;12.410;2023-06-22T12:06:56;8.77;;;5.72;;
34541;SDS011;20784;51.332;12.410;2023-06-22T12:09:27;9.27;;;6.75;;
34541;SDS011;20784;51.332;12.410;2023-06-22T12:11:53;9.07;;;6.03;;
34541;SDS011;20784;51.332;12.410;2023-06-22T12:14:19;7.43;;;6.25;;
34541;SDS011;20784;51.332;12.410;2023-06-22T12:16:44;8.15;;;6.55;;
34541;SDS011;20784;51.332;12.410;2023-06-22T12:19:28;7.13;;;6.43;;
34541;SDS011;20784;51.332;12.410;2023-06-22T12:21:54;9.75;;;6.47;;
34541;SDS011;20784;51.332;12.410;2023-06-22T12:24:22;12.13;;;6.35;;
34541;SDS011;20784;51.332;12.410;2023-06-22T12:26:48;8.50;;;6.50;;
34541;SDS011;20784;51.332;12.410;2023-06-22T12:29:14;9.18;;;6.72;;
34541;SDS011;20784;51.332;12.410;2023-06-22T12:31:40;9.15;;;6.57;;
34541;SDS011;20784;51.332;12.410;2023-06-22T12:34:06;9.85;;;6.57;;
34541;SDS011;20784;51.332;12.410;2023-06-22T12:36:32;11.25;;;6.97;;
34541;SDS011;20784;51.332;12.410;2023-06-22T12:38:57;10.00;;;6.47;;
34541;SDS011;20784;51.332;12.410;2023-06-22T12:41:23;9.43;;;6.78;;
34541;SDS011;20784;51.332;12.410;2023-06-22T12:43:49;10.98;;;6.68;;
34541;SDS011;20784;51.332;12.410;2023-06-22T12:46:17;10.85;;;6.43;;
34541;SDS011;20784;51.332;12.410;2023-06-22T12:48:42;9.68;;;6.38;;
34541;SDS011;20784;51.332;12.410;2023-06-22T12:51:08;10.80;;;7.03;;
34541;SDS011;20784;51.332;12.410;2023-06-22T12:53:34;8.55;;;6.05;;
34541;SDS011;20784;51.332;12.410;2023-06-22T12:56:00;9.48;;;6.40;;
34541;SDS011;20784;51.332;12.410;2023-06-22T12:58:26;9.48;;;6.75;;
34541;SDS011;20784;51.332;12.410;2023-06-22T13:00:51;12.68;;;6.70;;
34541;SDS011;20784;51.332;12.410;2023-06-22T13:03:23;9.43;;;7.22;;
34541;SDS011;20784;51.332;12.410;2023-06-22T13:05:50;11.05;;;7.07;;
34541;SDS011;20784;51.332;12.410;2023-06-22T13:08:16;15.40;;;6.97;;
34541;SDS011;20784;51.332;12.410;2023-06-22T13:10:44;12.95;;;7.35;;
34541;SDS011;20784;51.332;12.410;2023-06-22T13:13:10;8.63;;;6.90;;
34541;SDS011;20784;51.332;12.410;2023-06-22T13:15:41;13.07;;;7.65;;
34541;SDS011;20784;51.332;12.410;2023-06-22T13:20:32;8.05;;;6.85;;
34541;SDS011;20784;51.332;12.410;2023-06-22T13:22:58;14.23;;;6.63;;
34541;SDS011;20784;51.332;12.410;2023-06-22T13:25:24;15.50;;;6.63;;
34541;SDS011;20784;51.332;12.410;2023-06-22T13:27:51;9.25;;;6.95;;
34541;SDS011;20784;51.332;12.410;2023-06-22T13:30:17;10.13;;;7.13;;
34541;SDS011;20784;51.332;12.410;2023-06-22T13:32:43;7.60;;;6.68;;
34541;SDS011;20784;51.332;12.410;2023-06-22T13:35:09;8.88;;;7.18;;
34541;SDS011;20784;51.332;12.410;2023-06-22T13:37:35;7.32;;;6.25;;
34541;SDS011;20784;51.332;12.410;2023-06-22T13:40:00;10.38;;;7.05;;
34541;SDS011;20784;51.332;12.410;2023-06-22T13:42:28;8.35;;;7.10;;
34541;SDS011;20784;51.332;12.410;2023-06-22T13:44:54;12.90;;;6.90;;
34541;SDS011;20784;51.332;12.410;2023-06-22T13:47:19;8.50;;;7.03;;
34541;SDS011;20784;51.332;12.410;2023-06-22T13:49:48;8.63;;;6.68;;
34541;SDS011;20784;51.332;12.410;2023-06-22T13:52:13;11.07;;;6.75;;
34541;SDS011;20784;51.332;12.410;2023-06-22T13:55:03;13.65;;;7.00;;
34541;SDS011;20784;51.332;12.410;2023-06-22T13:57:29;10.98;;;7.03;;
34541;SDS011;20784;51.332;12.410;2023-06-22T13:59:55;12.32;;;6.60;;
34541;SDS011;20784;51.332;12.410;2023-06-22T14:02:20;9.63;;;7.45;;
34541;SDS011;20784;51.332;12.410;2023-06-22T14:04:52;12.07;;;7.70;;
34541;SDS011;20784;51.332;12.410;2023-06-22T14:07:17;8.50;;;7.43;;
34541;SDS011;20784;51.332;12.410;2023-06-22T14:09:44;17.92;;;7.28;;
34541;SDS011;20784;51.332;12.410;2023-06-22T14:12:10;9.43;;;7.05;;
34541;SDS011;20784;51.332;12.410;2023-06-22T14:14:36;10.10;;;6.70;;
34541;SDS011;20784;51.332;12.410;2023-06-22T14:17:02;9.60;;;7.20;;
34541;SDS011;20784;51.332;12.410;2023-06-22T14:19:29;9.13;;;7.88;;
34541;SDS011;20784;51.332;12.410;2023-06-22T14:21:54;8.93;;;6.40;;
34541;SDS011;20784;51.332;12.410;2023-06-22T14:24:20;9.27;;;6.80;;
34541;SDS011;20784;51.332;12.410;2023-06-22T14:26:46;9.02;;;7.03;;
34541;SDS011;20784;51.332;12.410;2023-06-22T14:29:14;10.90;;;7.72;;
34541;SDS011;20784;51.332;12.410;2023-06-22T14:31:40;9.32;;;7.35;;
34541;SDS011;20784;51.332;12.410;2023-06-22T14:34:09;10.00;;;7.15;;
34541;SDS011;20784;51.332;12.410;2023-06-22T14:36:35;8.70;;;7.05;;
34541;SDS011;20784;51.332;12.410;2023-06-22T14:39:03;9.88;;;7.43;;
34541;SDS011;20784;51.332;12.410;2023-06-22T14:41:33;8.95;;;7.43;;